Taylorsville, North Carolina
Current Conditions -  °F | °C
As of 4:53 PM on Friday 24 Oct 2014 (Local Time) from KHKY Reporting Station
Clear Clear  
Wind Chill: 63°   Ceiling: Unl
Heat Index: 63°   Visibility: 10mi
Dew Point: 42°   Wind: 3mph
Humidity: 46%   Direction: 190°S
Pressure: 29.99"   Gusts: NA
Location:  35.92°N, 81.18°W
Report Text: KHKY 242053Z AUTO 19003KT 10SM CLR 17/06 A2999 RMK AO2 SLP143 T01720056 56010
Loading
Personal Weather Stations






























Interactive Weather Map
Tropical Storm Tracking
New forecast layout! Learn more

10-Day Weather Forecast

Advertisements
Track Severe Weather on mobile